createdAt,value
2023-05-07T00:02:00.501Z,11.30
2023-05-07T00:04:30.440Z,11.50
2023-05-07T00:06:57.875Z,11.30
2023-05-07T00:09:26.529Z,11.50
2023-05-07T00:11:53.968Z,11.40
2023-05-07T00:14:22.270Z,11.30
2023-05-07T00:16:51.202Z,11.30
2023-05-07T00:19:19.616Z,11.20
2023-05-07T00:21:48.207Z,10.90
2023-05-07T00:24:16.358Z,11.30
2023-05-07T00:26:44.277Z,11.30
2023-05-07T00:29:12.856Z,11.20
2023-05-07T00:31:41.957Z,11.00
2023-05-07T00:34:10.070Z,11.10
2023-05-07T00:36:38.523Z,11.10
2023-05-07T00:39:07.448Z,11.10
2023-05-07T00:41:37.100Z,11.20
2023-05-07T00:44:05.344Z,11.00
2023-05-07T00:46:38.822Z,11.00
2023-05-07T00:49:08.335Z,10.80
2023-05-07T00:51:37.062Z,11.00
2023-05-07T00:54:05.993Z,10.70
2023-05-07T00:56:34.041Z,10.70
2023-05-07T00:59:04.841Z,10.90
2023-05-07T01:01:35.796Z,10.50
2023-05-07T01:04:04.165Z,10.60
2023-05-07T01:06:35.654Z,10.70
2023-05-07T01:09:05.972Z,10.70
2023-05-07T01:11:35.240Z,10.70
2023-05-07T01:14:04.251Z,10.90
2023-05-07T01:16:32.481Z,10.90
2023-05-07T01:19:01.130Z,10.40
2023-05-07T01:21:35.753Z,10.60
2023-05-07T01:24:04.243Z,10.50
2023-05-07T01:26:32.945Z,10.50
2023-05-07T01:29:00.934Z,10.40
2023-05-07T01:31:29.275Z,10.40
2023-05-07T01:34:01.056Z,10.40
2023-05-07T01:36:32.372Z,10.30
2023-05-07T01:39:01.693Z,10.20
2023-05-07T01:41:31.896Z,10.20
2023-05-07T01:44:01.333Z,10.10
2023-05-07T01:46:30.775Z,10.20
2023-05-07T01:49:00.025Z,10.10
2023-05-07T01:51:28.284Z,10.10
2023-05-07T01:53:57.262Z,10.10
2023-05-07T01:56:26.880Z,10.00
2023-05-07T01:58:55.561Z,10.30
2023-05-07T02:01:23.636Z,10.00
2023-05-07T02:03:52.199Z,10.30
2023-05-07T02:06:21.438Z,9.80
2023-05-07T02:08:50.531Z,10.20
2023-05-07T02:11:19.477Z,10.10
2023-05-07T02:13:47.377Z,10.00
2023-05-07T02:16:15.853Z,9.90
2023-05-07T02:18:44.998Z,9.80
2023-05-07T02:21:16.000Z,10.20
2023-05-07T02:23:44.812Z,10.20
2023-05-07T02:26:15.061Z,10.10
2023-05-07T02:28:43.163Z,9.70
2023-05-07T02:31:10.702Z,9.80
2023-05-07T02:33:38.976Z,9.90
2023-05-07T02:36:12.229Z,9.70
2023-05-07T02:38:40.537Z,9.70
2023-05-07T02:41:08.797Z,9.90
2023-05-07T02:43:38.194Z,9.60
2023-05-07T02:46:08.947Z,9.50
2023-05-07T02:48:37.683Z,9.60
2023-05-07T02:51:06.638Z,9.70
2023-05-07T02:53:35.766Z,9.70
2023-05-07T02:56:04.174Z,9.90
2023-05-07T02:58:31.989Z,9.50
2023-05-07T03:01:01.156Z,9.50
2023-05-07T03:03:29.829Z,9.30
2023-05-07T03:05:58.712Z,9.50
2023-05-07T03:08:27.550Z,9.60
2023-05-07T03:10:56.075Z,9.60
2023-05-07T03:13:24.036Z,9.70
2023-05-07T03:15:52.350Z,9.80
2023-05-07T03:18:21.456Z,9.90
2023-05-07T03:20:51.311Z,9.70
2023-05-07T03:23:19.960Z,9.90
2023-05-07T03:25:48.446Z,9.60
2023-05-07T03:28:16.826Z,9.60
2023-05-07T03:30:46.032Z,9.50
2023-05-07T03:33:14.571Z,9.50
2023-05-07T03:35:43.386Z,9.80
2023-05-07T03:38:11.271Z,9.60
2023-05-07T03:40:40.466Z,9.60
2023-05-07T03:43:09.760Z,9.50
2023-05-07T03:45:39.358Z,9.80
2023-05-07T03:48:07.960Z,9.90
2023-05-07T03:50:36.587Z,9.70
2023-05-07T03:53:06.293Z,10.00
2023-05-07T03:55:33.906Z,9.90
2023-05-07T03:58:03.544Z,10.00
2023-05-07T04:00:36.286Z,9.90
2023-05-07T04:03:06.626Z,9.90
2023-05-07T04:05:35.849Z,10.20
2023-05-07T04:08:04.317Z,10.10
2023-05-07T04:10:33.348Z,10.00
2023-05-07T04:13:01.321Z,10.40
2023-05-07T04:15:28.770Z,10.50
2023-05-07T04:17:56.457Z,10.50
2023-05-07T04:20:28.757Z,10.80
2023-05-07T04:23:05.515Z,10.70
2023-05-07T04:25:38.374Z,10.90
2023-05-07T04:28:10.617Z,10.70
2023-05-07T04:30:41.109Z,10.80
2023-05-07T04:33:11.196Z,11.10
2023-05-07T04:35:41.763Z,11.30
2023-05-07T04:38:13.519Z,11.30
2023-05-07T04:40:48.638Z,11.50
2023-05-07T04:43:17.919Z,12.10
2023-05-07T04:45:46.973Z,12.20
2023-05-07T04:48:17.928Z,12.70
2023-05-07T04:50:52.321Z,13.20
2023-05-07T04:53:23.257Z,13.80
2023-05-07T04:56:00.161Z,14.00
2023-05-07T04:58:44.559Z,14.50
2023-05-07T05:01:17.425Z,15.00
2023-05-07T05:04:16.253Z,15.30
2023-05-07T05:06:45.952Z,15.80
2023-05-07T05:09:41.036Z,16.70
2023-05-07T05:12:19.206Z,16.70
2023-05-07T05:14:52.680Z,16.70
2023-05-07T05:17:24.467Z,17.00
2023-05-07T05:19:54.758Z,17.60
2023-05-07T05:22:27.333Z,18.10
2023-05-07T05:24:59.600Z,18.00
2023-05-07T05:27:34.811Z,18.00
2023-05-07T05:30:13.051Z,19.60
2023-05-07T05:32:45.323Z,19.40
2023-05-07T05:35:18.710Z,20.50
2023-05-07T05:37:48.229Z,20.40
2023-05-07T05:40:17.428Z,20.40
2023-05-07T05:42:53.299Z,19.80
2023-05-07T05:45:24.956Z,19.80
2023-05-07T05:47:57.018Z,20.40
2023-05-07T05:50:32.460Z,20.40
2023-05-07T05:53:08.328Z,21.00
2023-05-07T05:55:39.256Z,21.60
2023-05-07T05:58:17.651Z,22.30
2023-05-07T06:01:09.206Z,22.10
2023-05-07T06:03:40.974Z,21.70
2023-05-07T06:06:11.553Z,21.60
2023-05-07T06:09:05.654Z,21.20
2023-05-07T06:11:50.813Z,22.20
2023-05-07T06:14:21.350Z,22.80
2023-05-07T06:16:52.223Z,23.00
2023-05-07T06:19:24.565Z,22.40
2023-05-07T06:21:52.636Z,22.00
2023-05-07T06:24:21.535Z,21.90
2023-05-07T06:26:50.765Z,22.30
2023-05-07T06:29:21.357Z,23.00
2023-05-07T06:32:17.290Z,23.10
2023-05-07T06:40:20.684Z,23.30
2023-05-07T06:42:51.544Z,23.30
2023-05-07T06:45:27.050Z,23.20
2023-05-07T06:47:57.947Z,23.30
2023-05-07T06:54:24.432Z,23.90
2023-05-07T06:56:55.271Z,24.20
2023-05-07T06:59:23.960Z,24.10
2023-05-07T07:01:52.396Z,24.90
2023-05-07T07:04:24.384Z,24.60
2023-05-07T07:06:56.976Z,24.60
2023-05-07T07:09:25.555Z,24.50
2023-05-07T07:11:53.477Z,24.90
2023-05-07T07:14:22.066Z,23.60
2023-05-07T07:16:51.307Z,23.60
2023-05-07T07:19:22.091Z,22.80
2023-05-07T07:21:55.306Z,23.40
2023-05-07T07:24:25.644Z,23.40
2023-05-07T07:27:01.835Z,24.70
2023-05-07T07:29:33.705Z,24.70
2023-05-07T07:32:03.955Z,24.60
2023-05-07T07:34:35.620Z,25.00
2023-05-07T07:37:11.916Z,25.00
2023-05-07T07:39:42.496Z,24.20
2023-05-07T07:42:21.398Z,23.10
2023-05-07T07:44:51.473Z,24.60
2023-05-07T07:47:28.425Z,24.70
2023-05-07T07:50:01.525Z,24.50
2023-05-07T07:52:30.363Z,24.80
2023-05-07T07:54:59.607Z,24.60
2023-05-07T07:57:29.324Z,23.50
2023-05-07T07:59:58.016Z,24.30
2023-05-07T08:02:27.251Z,24.40
2023-05-07T08:05:00.193Z,25.60
2023-05-07T08:07:42.381Z,26.30
2023-05-07T08:10:30.056Z,25.90
2023-05-07T08:13:00.207Z,26.40
2023-05-07T08:15:38.063Z,26.50
2023-05-07T08:18:11.602Z,26.90
2023-05-07T08:20:44.382Z,26.10
2023-05-07T08:23:25.824Z,25.80
2023-05-07T08:25:57.914Z,25.50
2023-05-07T08:28:31.014Z,25.80
2023-05-07T08:31:03.908Z,25.40
2023-05-07T08:33:40.684Z,25.00
2023-05-07T08:36:10.222Z,24.80
2023-05-07T08:38:41.892Z,24.30
2023-05-07T08:41:14.839Z,24.50
2023-05-07T08:43:53.400Z,25.00
2023-05-07T08:46:24.468Z,24.30
2023-05-07T08:48:54.328Z,24.80
2023-05-07T08:51:26.758Z,24.80
2023-05-07T08:53:57.948Z,24.80
2023-05-07T08:56:33.787Z,24.70
2023-05-07T08:59:26.114Z,24.90
2023-05-07T09:02:38.908Z,25.00
2023-05-07T09:05:38.356Z,24.80
2023-05-07T09:08:28.197Z,24.80
2023-05-07T09:10:58.658Z,25.30
2023-05-07T09:13:31.297Z,25.30
2023-05-07T09:19:29.979Z,24.20
2023-05-07T09:22:13.178Z,24.70
2023-05-07T09:24:52.811Z,24.60
2023-05-07T09:27:23.926Z,25.00
2023-05-07T09:29:59.838Z,24.80
2023-05-07T09:32:32.064Z,24.70
2023-05-07T09:35:02.431Z,23.70
2023-05-07T09:37:33.678Z,22.30
2023-05-07T09:40:02.972Z,22.60
2023-05-07T09:42:31.940Z,23.60
2023-05-07T09:45:02.226Z,23.60
2023-05-07T09:47:38.389Z,23.80
2023-05-07T09:50:14.649Z,23.20
2023-05-07T09:52:45.904Z,23.40
2023-05-07T09:55:17.245Z,23.10
2023-05-07T09:57:47.935Z,23.80
2023-05-07T10:00:19.130Z,23.90
2023-05-07T10:03:01.317Z,23.20
2023-05-07T10:05:33.925Z,23.60
2023-05-07T10:08:04.879Z,23.60
2023-05-07T10:10:37.008Z,23.70
2023-05-07T10:13:12.451Z,23.90
2023-05-07T10:15:43.802Z,23.90
2023-05-07T10:18:15.426Z,23.90
2023-05-07T10:20:49.333Z,24.00
2023-05-07T10:23:25.995Z,24.00
2023-05-07T10:26:00.767Z,23.70
2023-05-07T10:28:35.769Z,23.60
2023-05-07T10:31:17.186Z,23.60
2023-05-07T10:33:50.361Z,23.20
2023-05-07T10:36:20.622Z,23.70
2023-05-07T10:38:49.203Z,23.60
2023-05-07T10:41:20.357Z,23.80
2023-05-07T10:43:53.609Z,23.60
2023-05-07T10:46:24.261Z,23.30
2023-05-07T10:49:04.778Z,23.50
2023-05-07T10:51:37.661Z,23.60
2023-05-07T10:54:14.431Z,23.70
2023-05-07T10:56:51.778Z,23.40
2023-05-07T10:59:23.013Z,23.20
2023-05-07T11:02:05.698Z,23.40
2023-05-07T11:04:37.812Z,23.50
2023-05-07T11:07:12.629Z,23.20
2023-05-07T11:10:02.860Z,22.90
2023-05-07T11:12:40.333Z,23.50
2023-05-07T11:15:12.970Z,23.40
2023-05-07T11:17:59.900Z,23.50
2023-05-07T11:21:00.487Z,23.00
2023-05-07T11:23:36.932Z,23.00
2023-05-07T11:26:09.992Z,22.80
2023-05-07T11:28:44.800Z,22.80
2023-05-07T11:31:14.518Z,23.10
2023-05-07T11:33:43.496Z,23.60
2023-05-07T11:36:12.573Z,23.20
2023-05-07T11:38:41.946Z,23.30
2023-05-07T11:41:12.912Z,22.90
2023-05-07T11:44:17.083Z,23.40
2023-05-07T11:46:46.764Z,22.90
2023-05-07T11:49:20.138Z,22.90
2023-05-07T11:51:48.876Z,23.40
2023-05-07T11:54:18.311Z,23.40
2023-05-07T11:56:47.577Z,23.50
2023-05-07T11:59:20.766Z,23.50
2023-05-07T12:01:49.443Z,23.50
2023-05-07T12:04:22.974Z,23.10
2023-05-07T12:06:56.026Z,23.20
2023-05-07T12:09:25.459Z,22.90
2023-05-07T12:11:54.919Z,23.20
2023-05-07T12:14:30.573Z,23.20
2023-05-07T12:17:02.458Z,23.40
2023-05-07T12:19:32.835Z,23.10
2023-05-07T12:22:01.682Z,22.70
2023-05-07T12:24:43.428Z,23.40
2023-05-07T12:27:12.735Z,23.20
2023-05-07T12:29:45.014Z,23.50
2023-05-07T12:32:31.457Z,23.10
2023-05-07T12:35:00.620Z,22.70
2023-05-07T12:37:32.356Z,22.40
2023-05-07T12:40:11.431Z,22.70
2023-05-07T12:42:42.720Z,22.70
2023-05-07T12:45:14.872Z,22.50
2023-05-07T12:47:52.164Z,23.20
2023-05-07T12:50:22.127Z,23.00
2023-05-07T12:52:51.715Z,22.40
2023-05-07T12:55:19.477Z,22.20
2023-05-07T12:57:53.137Z,22.00
2023-05-07T13:00:39.771Z,21.00
2023-05-07T13:03:09.215Z,21.20
2023-05-07T13:05:37.492Z,21.10
2023-05-07T13:08:07.239Z,21.00
2023-05-07T13:10:36.035Z,20.90
2023-05-07T13:13:04.783Z,20.50
2023-05-07T13:15:34.665Z,20.30
2023-05-07T13:18:04.363Z,20.10
2023-05-07T13:20:34.389Z,20.30
2023-05-07T13:23:08.868Z,20.20
2023-05-07T13:25:39.184Z,20.00
2023-05-07T13:28:11.166Z,20.10
2023-05-07T13:30:42.063Z,20.00
2023-05-07T13:33:35.594Z,20.20
2023-05-07T13:36:08.148Z,20.10
2023-05-07T13:38:45.837Z,19.70
2023-05-07T13:41:21.393Z,19.70
2023-05-07T13:43:52.955Z,20.10
2023-05-07T13:46:34.691Z,20.10
2023-05-07T13:49:05.107Z,19.50
2023-05-07T13:51:36.255Z,19.60
2023-05-07T13:54:05.882Z,19.80
2023-05-07T13:56:36.610Z,19.40
2023-05-07T13:59:04.884Z,19.30
2023-05-07T14:01:36.273Z,18.80
2023-05-07T14:04:04.968Z,18.90
2023-05-07T14:06:33.216Z,18.70
2023-05-07T14:09:01.915Z,18.70
2023-05-07T14:11:31.513Z,18.40
2023-05-07T14:14:02.903Z,18.60
2023-05-07T14:16:31.031Z,18.50
2023-05-07T14:19:00.125Z,18.60
2023-05-07T14:21:27.737Z,18.60
2023-05-07T14:23:57.869Z,18.70
2023-05-07T14:26:25.434Z,18.60
2023-05-07T14:28:53.795Z,18.60
2023-05-07T14:31:23.290Z,18.60
2023-05-07T14:33:53.888Z,18.80
2023-05-07T14:36:27.119Z,18.40
2023-05-07T14:38:56.067Z,18.30
2023-05-07T14:41:29.197Z,18.70
2023-05-07T14:44:00.639Z,18.70
2023-05-07T14:46:29.074Z,18.70
2023-05-07T14:48:58.876Z,18.60
2023-05-07T14:51:27.071Z,18.20
2023-05-07T14:53:55.863Z,18.40
2023-05-07T14:56:23.882Z,18.30
2023-05-07T14:58:52.152Z,18.30
2023-05-07T15:01:22.328Z,18.20
2023-05-07T15:03:50.884Z,18.10
2023-05-07T15:06:19.958Z,18.10
2023-05-07T15:08:49.204Z,18.30
2023-05-07T15:11:19.402Z,18.10
2023-05-07T15:13:47.681Z,17.90
2023-05-07T15:16:16.186Z,17.60
2023-05-07T15:18:45.668Z,17.80
2023-05-07T15:21:14.729Z,17.70
2023-05-07T15:23:43.166Z,17.50
2023-05-07T15:26:18.355Z,17.50
2023-05-07T15:28:49.275Z,17.50
2023-05-07T15:31:49.767Z,17.40
2023-05-07T15:34:38.615Z,17.20
2023-05-07T15:37:09.827Z,17.10
2023-05-07T15:39:40.850Z,17.00
2023-05-07T15:42:09.661Z,16.90
2023-05-07T15:44:41.257Z,17.10
2023-05-07T15:47:12.683Z,16.90
2023-05-07T15:49:40.821Z,16.70
2023-05-07T15:52:12.014Z,16.50
2023-05-07T15:54:40.500Z,16.00
2023-05-07T15:57:21.293Z,16.20
2023-05-07T15:59:55.362Z,15.90
2023-05-07T16:02:27.194Z,15.90
2023-05-07T16:04:55.607Z,15.90
2023-05-07T16:07:24.744Z,15.90
2023-05-07T16:10:03.096Z,15.70
2023-05-07T16:12:34.985Z,15.70
2023-05-07T16:15:07.166Z,15.70
2023-05-07T16:17:42.717Z,15.70
2023-05-07T16:20:15.630Z,15.60
2023-05-07T16:22:43.711Z,15.50
2023-05-07T16:25:13.380Z,15.60
2023-05-07T16:27:43.790Z,15.50
2023-05-07T16:30:19.139Z,15.40
2023-05-07T16:32:48.502Z,15.20
2023-05-07T16:35:26.087Z,15.10
2023-05-07T16:37:54.260Z,15.20
2023-05-07T16:40:22.568Z,15.10
2023-05-07T16:42:50.232Z,15.30
2023-05-07T16:45:21.985Z,15.10
2023-05-07T16:47:50.666Z,15.20
2023-05-07T16:50:18.762Z,14.90
2023-05-07T16:52:47.364Z,14.80
2023-05-07T16:55:15.492Z,14.60
2023-05-07T16:57:43.380Z,14.50
2023-05-07T17:00:12.899Z,14.50
2023-05-07T17:02:41.781Z,14.40
2023-05-07T17:05:11.164Z,14.20
2023-05-07T17:07:39.819Z,14.00
2023-05-07T17:10:08.986Z,14.00
2023-05-07T17:12:37.869Z,13.90
2023-05-07T17:15:07.308Z,13.90
2023-05-07T17:17:37.770Z,13.80
2023-05-07T17:20:06.548Z,13.90
2023-05-07T17:22:34.276Z,13.90
2023-05-07T17:25:04.345Z,14.10
2023-05-07T17:27:34.736Z,13.60
2023-05-07T17:30:03.242Z,13.50
2023-05-07T17:32:31.286Z,13.60
2023-05-07T17:34:59.176Z,13.50
2023-05-07T17:37:27.500Z,13.40
2023-05-07T17:39:54.874Z,13.40
2023-05-07T17:42:22.973Z,13.60
2023-05-07T17:44:50.540Z,13.40
2023-05-07T17:47:18.090Z,13.40
2023-05-07T17:49:45.742Z,13.30
2023-05-07T17:52:13.573Z,13.50
2023-05-07T17:54:41.746Z,13.10
2023-05-07T17:57:09.375Z,13.30
2023-05-07T17:59:37.520Z,13.20
2023-05-07T18:02:05.287Z,12.90
2023-05-07T18:04:33.700Z,13.00
2023-05-07T18:07:01.287Z,12.90
2023-05-07T18:09:28.981Z,12.80
2023-05-07T18:11:56.709Z,12.60
2023-05-07T18:14:26.327Z,12.60
2023-05-07T18:16:54.401Z,12.30
2023-05-07T18:19:22.422Z,12.40
2023-05-07T18:21:50.821Z,12.60
2023-05-07T18:24:18.530Z,12.40
2023-05-07T18:26:49.262Z,12.10
2023-05-07T18:29:17.151Z,12.10
2023-05-07T18:31:44.955Z,11.80
2023-05-07T18:34:14.608Z,12.00
2023-05-07T18:36:42.361Z,12.00
2023-05-07T18:39:10.081Z,11.90
2023-05-07T18:41:37.688Z,12.00
2023-05-07T18:44:05.802Z,11.90
2023-05-07T18:46:35.499Z,11.60
2023-05-07T18:49:02.881Z,11.80
2023-05-07T18:51:30.602Z,11.90
2023-05-07T18:53:57.981Z,11.80
2023-05-07T18:56:27.073Z,11.70
2023-05-07T18:59:00.641Z,11.40
2023-05-07T19:01:28.536Z,11.20
2023-05-07T19:03:56.361Z,11.40
2023-05-07T19:06:26.551Z,11.70
2023-05-07T19:08:54.982Z,11.50
2023-05-07T19:11:24.612Z,11.40
2023-05-07T19:13:53.131Z,11.00
2023-05-07T19:16:22.062Z,11.30
2023-05-07T19:18:52.953Z,11.10
2023-05-07T19:21:24.514Z,10.80
2023-05-07T19:23:54.100Z,10.80
2023-05-07T19:26:24.176Z,10.80
2023-05-07T19:29:01.689Z,10.80
2023-05-07T19:31:40.060Z,10.50
2023-05-07T19:34:08.585Z,10.80
2023-05-07T19:36:36.307Z,11.00
2023-05-07T19:39:11.860Z,10.80
2023-05-07T19:41:39.729Z,10.50
2023-05-07T19:44:10.300Z,10.70
2023-05-07T19:46:40.721Z,10.50
2023-05-07T19:49:11.199Z,10.30
2023-05-07T19:51:40.944Z,10.60
2023-05-07T19:54:09.581Z,10.30
2023-05-07T19:56:38.849Z,10.60
2023-05-07T19:59:08.528Z,10.30
2023-05-07T20:01:36.930Z,10.30
2023-05-07T20:04:05.713Z,10.40
2023-05-07T20:06:34.039Z,10.60
2023-05-07T20:09:01.804Z,10.50
2023-05-07T20:11:30.337Z,10.60
2023-05-07T20:13:58.556Z,10.30
2023-05-07T20:16:26.925Z,10.20
2023-05-07T20:18:56.157Z,10.20
2023-05-07T20:21:24.643Z,10.20
2023-05-07T20:23:52.672Z,10.10
2023-05-07T20:26:22.081Z,10.20
2023-05-07T20:28:49.885Z,10.10
2023-05-07T20:31:18.586Z,10.10
2023-05-07T20:33:46.434Z,10.10
2023-05-07T20:36:15.724Z,10.40
2023-05-07T20:38:44.410Z,10.20
2023-05-07T20:41:17.759Z,10.10
2023-05-07T20:43:45.483Z,10.10
2023-05-07T20:46:14.339Z,10.10
2023-05-07T20:48:44.225Z,10.00
2023-05-07T20:51:16.209Z,9.90
2023-05-07T20:53:47.269Z,10.00
2023-05-07T20:56:19.493Z,9.70
2023-05-07T20:58:47.690Z,9.80
2023-05-07T21:01:16.148Z,9.70
2023-05-07T21:03:44.754Z,9.90
2023-05-07T21:06:13.451Z,9.70
2023-05-07T21:08:42.125Z,10.00
2023-05-07T21:11:13.382Z,9.40
2023-05-07T21:13:41.941Z,9.70
2023-05-07T21:16:11.172Z,9.70
2023-05-07T21:18:40.238Z,9.50
2023-05-07T21:21:09.842Z,9.60
2023-05-07T21:23:42.706Z,9.60
2023-05-07T21:26:18.978Z,9.60
2023-05-07T21:28:47.872Z,9.50
2023-05-07T21:31:19.003Z,9.80
2023-05-07T21:33:47.191Z,9.50
2023-05-07T21:36:15.384Z,9.50
2023-05-07T21:38:43.249Z,9.40
2023-05-07T21:41:12.989Z,9.60
2023-05-07T21:43:42.002Z,9.50
2023-05-07T21:46:11.192Z,9.50
2023-05-07T21:48:40.216Z,9.50
2023-05-07T21:51:09.428Z,9.50
2023-05-07T21:53:41.714Z,9.30
2023-05-07T21:56:10.284Z,9.30
2023-05-07T21:58:39.778Z,9.30
2023-05-07T22:01:08.778Z,9.30
2023-05-07T22:03:36.700Z,9.40
2023-05-07T22:06:06.293Z,9.20
2023-05-07T22:08:36.093Z,9.30
2023-05-07T22:11:05.693Z,9.50
2023-05-07T22:13:34.781Z,9.40
2023-05-07T22:16:04.104Z,9.30
2023-05-07T22:18:32.548Z,9.20
2023-05-07T22:21:01.529Z,9.10
2023-05-07T22:23:30.154Z,9.30
2023-05-07T22:25:59.715Z,9.20
2023-05-07T22:28:28.265Z,9.20
2023-05-07T22:30:59.062Z,9.30
2023-05-07T22:33:28.200Z,9.00
2023-05-07T22:35:58.177Z,9.20
2023-05-07T22:38:28.668Z,9.00
2023-05-07T22:40:59.349Z,9.00
2023-05-07T22:43:57.664Z,9.00
2023-05-07T22:46:26.397Z,9.00
2023-05-07T22:48:57.222Z,8.90
2023-05-07T22:51:29.739Z,8.90
2023-05-07T22:54:01.620Z,9.10
2023-05-07T22:56:35.352Z,8.80
2023-05-07T22:59:04.133Z,8.80
2023-05-07T23:01:45.874Z,8.70
2023-05-07T23:04:29.959Z,8.70
2023-05-07T23:06:58.819Z,8.60
2023-05-07T23:09:28.111Z,8.40
2023-05-07T23:11:57.226Z,8.80
2023-05-07T23:14:30.193Z,8.70
2023-05-07T23:17:02.442Z,8.50
2023-05-07T23:19:32.498Z,8.70
2023-05-07T23:22:02.243Z,8.50
2023-05-07T23:24:31.416Z,8.50
2023-05-07T23:27:00.847Z,8.70
2023-05-07T23:29:30.847Z,8.50
2023-05-07T23:31:58.925Z,8.40
2023-05-07T23:34:29.786Z,8.40
2023-05-07T23:37:03.424Z,8.10
2023-05-07T23:39:32.781Z,8.30
2023-05-07T23:42:03.007Z,8.10
2023-05-07T23:44:33.196Z,8.40
2023-05-07T23:47:03.838Z,8.10
2023-05-07T23:49:33.045Z,8.10
2023-05-07T23:52:03.132Z,8.00
2023-05-07T23:54:34.109Z,7.90
2023-05-07T23:57:04.642Z,8.20
2023-05-07T23:59:34.473Z,8.30
